RVN weather

Rovaniemi Airport
Rovaniemi, Lapland, Finland

Public forecast

Using degrees Celsius for public forecast. Weather courtesy of forecast.io.

Current aviation weather report (METAR) for Rovaniemi Airport

Retrieved 2019/11/19 21:20 UTC (33 minutes ago):

EFRO 192120Z AUTO 12011KT 3500 -SHRA OVC002 00/00 Q1024

Aviation forecast (TAF) for Rovaniemi Airport

Retrieved 2019/11/19 21:42 UTC (11 minutes ago):

TAF EFRO 192025Z 1921/2021 12010KT 7000 OVC003 TEMPO 1921/1922 2500 -FZDZSN BECMG 1922/1924 1500 -DZ OVC002 TEMPO 1924/2010 0500 FG VV001 BECMG 2010/2012 8000 -RA TEMPO 2010/2013 5000 RA BECMG 2013/2015 20004KT 0300 FG VV001 TEMPO 2015/2021 1500 BR OVC002